Time;durP1;ratioP1;P1;durP2;ratioP2;P2;SDS_P1;SDS_P2;PMS_P1;PMS_P2;Temp;Humidity;BMP_temperature;BMP_pressure;BME280_temperature;BME280_humidity;BME280_pressure;Samples;Min_cycle;Max_cycle;Signal;HPM_P1;HPM_P2
2022/02/10 00:04:09;;;;;;;6.13;3.30;;;;;;;;;;5021675;28;20542;-64
2022/02/10 00:06:48;;;;;;;4.88;3.03;;;;;;;;;;5023997;28;20109;-63
2022/02/10 00:17:30;;;;;;;8.20;3.80;;;;;;;;;;4992104;28;20093;-64
2022/02/10 00:23:32;;;;;;;6.07;3.53;;;;;;;;;;4992548;28;20302;-66
2022/02/10 00:36:12;;;;;;;10.50;5.35;;;;;;;;;;4997622;28;20194;-65
2022/02/10 00:38:43;;;;;;;41.55;11.82;;;;;;;;;;4994770;28;20119;-65
2022/02/10 00:41:08;;;;;;;79.28;21.42;;;;;;;;;;4998536;28;20067;-65
2022/02/10 00:43:33;;;;;;;66.43;19.03;;;;;;;;;;4994878;28;20078;-63
2022/02/10 00:45:59;;;;;;;36.70;11.80;;;;;;;;;;4989657;28;20126;-65
2022/02/10 00:48:24;;;;;;;28.70;9.40;;;;;;;;;;4992868;28;20567;-65
2022/02/10 00:50:51;;;;;;;22.27;8.25;;;;;;;;;;4996575;28;20103;-63
2022/02/10 00:53:26;;;;;;;18.35;7.32;;;;;;;;;;4995072;28;20094;-64
2022/02/10 00:55:51;;;;;;;14.27;5.40;;;;;;;;;;4990426;28;20082;-65
2022/02/10 00:58:25;;;;;;;8.70;4.60;;;;;;;;;;4991730;28;20117;-66
2022/02/10 01:12:28;;;;;;;5.97;3.55;;;;;;;;;;5001068;28;20105;-65
2022/02/10 01:30:52;;;;;;;6.35;3.20;;;;;;;;;;4996316;28;20128;-65
2022/02/10 01:33:17;;;;;;;5.85;3.30;;;;;;;;;;4989769;28;20098;-63
2022/02/10 01:35:43;;;;;;;5.63;3.30;;;;;;;;;;4990255;28;20106;-64
2022/02/10 01:38:08;;;;;;;7.00;3.90;;;;;;;;;;5001783;28;20527;-66
2022/02/10 01:57:44;;;;;;;6.38;3.45;;;;;;;;;;4994296;28;20109;-66
2022/02/10 02:05:26;;;;;;;8.85;4.13;;;;;;;;;;4989240;28;20191;-63
2022/02/10 02:07:51;;;;;;;8.73;4.38;;;;;;;;;;4995449;28;20646;-65
2022/02/10 02:10:17;;;;;;;8.73;4.50;;;;;;;;;;4999900;28;20181;-64
2022/02/10 02:12:47;;;;;;;9.63;4.90;;;;;;;;;;5002261;28;20318;-65
2022/02/10 02:15:14;;;;;;;7.13;3.88;;;;;;;;;;4986696;28;20345;-64
2022/02/10 02:17:39;;;;;;;16.58;5.03;;;;;;;;;;4989813;28;20112;-65
2022/02/10 02:20:04;;;;;;;9.10;4.60;;;;;;;;;;4995721;28;20722;-65
2022/02/10 02:22:30;;;;;;;7.70;4.15;;;;;;;;;;4992795;28;20221;-64
2022/02/10 02:24:55;;;;;;;9.93;4.83;;;;;;;;;;4988782;28;20159;-67
2022/02/10 02:27:20;;;;;;;7.97;4.00;;;;;;;;;;4992648;28;20265;-64
2022/02/10 02:29:55;;;;;;;8.10;4.03;;;;;;;;;;4995263;28;20193;-66
2022/02/10 02:32:29;;;;;;;8.27;3.83;;;;;;;;;;4994078;28;20085;-64
2022/02/10 03:07:37;;;;;;;9.02;4.20;;;;;;;;;;4994693;28;20178;-65
2022/02/10 03:10:07;;;;;;;6.82;3.80;;;;;;;;;;4999840;28;20102;-63
2022/02/10 03:12:32;;;;;;;8.38;4.30;;;;;;;;;;4981981;28;20075;-66
2022/02/10 03:15:01;;;;;;;7.90;4.30;;;;;;;;;;4982570;28;20653;-65
2022/02/10 03:17:41;;;;;;;7.43;4.00;;;;;;;;;;4991144;28;20117;-65
2022/02/10 03:20:40;;;;;;;7.50;4.30;;;;;;;;;;4988521;28;20117;-65
2022/02/10 04:04:25;;;;;;;7.65;4.13;;;;;;;;;;4994374;28;20223;-64
2022/02/10 04:16:51;;;;;;;8.00;4.13;;;;;;;;;;4985452;28;20575;-67
2022/02/10 04:22:02;;;;;;;6.68;4.18;;;;;;;;;;4997321;28;20115;-66
2022/02/10 04:24:56;;;;;;;7.60;4.50;;;;;;;;;;4997568;28;20408;-63
2022/02/10 04:27:31;;;;;;;8.00;4.60;;;;;;;;;;4994604;28;20106;-66
2022/02/10 04:30:30;;;;;;;8.38;4.70;;;;;;;;;;5012400;28;20109;-65
2022/02/10 04:55:05;;;;;;;10.30;5.50;;;;;;;;;;5023100;28;20109;-64
2022/02/10 04:57:36;;;;;;;10.18;5.53;;;;;;;;;;5022221;28;20185;-65
2022/02/10 05:00:33;;;;;;;12.52;5.60;;;;;;;;;;5023857;28;20803;-65
2022/02/10 05:17:25;;;;;;;8.82;4.07;;;;;;;;;;4965764;28;20094;-66
2022/02/10 05:31:14;;;;;;;12.45;6.28;;;;;;;;;;5022986;28;20074;-66
2022/02/10 05:35:35;;;;;;;12.50;5.45;;;;;;;;;;5022467;28;20111;-64
2022/02/10 05:38:47;;;;;;;9.48;5.65;;;;;;;;;;5017910;28;20618;-65
2022/02/10 07:05:10;;;;;;;11.57;6.63;;;;;;;;;;5015088;28;20077;-64
2022/02/10 07:08:01;;;;;;;14.15;7.43;;;;;;;;;;5014709;28;20106;-63
2022/02/10 07:10:52;;;;;;;11.95;8.13;;;;;;;;;;4990992;28;20182;-64
2022/02/10 07:13:53;;;;;;;10.50;6.22;;;;;;;;;;4979335;28;20181;-65
2022/02/10 08:50:33;;;;;;;14.13;7.57;;;;;;;;;;5017517;28;20198;-66
2022/02/10 09:55:05;;;;;;;12.55;6.68;;;;;;;;;;4972697;28;20442;-72
2022/02/10 10:03:02;;;;;;;14.73;9.13;;;;;;;;;;4976636;28;20102;-69
2022/02/10 10:05:33;;;;;;;16.95;8.35;;;;;;;;;;5006507;28;20097;-71
2022/02/10 10:14:06;;;;;;;13.38;7.72;;;;;;;;;;4951363;28;20103;-71
2022/02/10 10:16:46;;;;;;;17.13;9.57;;;;;;;;;;5003852;28;20551;-72
2022/02/10 10:19:26;;;;;;;13.63;6.68;;;;;;;;;;4971915;28;20094;-72
2022/02/10 10:25:11;;;;;;;11.35;6.57;;;;;;;;;;4951365;28;20087;-69
2022/02/10 10:44:15;;;;;;;12.32;7.70;;;;;;;;;;4979928;28;20423;-70
2022/02/10 10:50:29;;;;;;;14.80;8.45;;;;;;;;;;4986213;28;20105;-70
2022/02/10 10:55:52;;;;;;;11.75;6.97;;;;;;;;;;4999930;28;20074;-70
2022/02/10 10:58:32;;;;;;;17.45;9.38;;;;;;;;;;4988706;28;20103;-72
2022/02/10 11:36:20;;;;;;;15.65;8.85;;;;;;;;;;5014202;28;20515;-71
2022/02/10 11:36:26;;;;;;;14.45;8.38;;;;;;;;;;4987047;28;20190;-70
2022/02/10 11:41:54;;;;;;;14.52;7.55;;;;;;;;;;4997675;28;20652;-74
2022/02/10 12:02:06;;;;;;;14.13;7.80;;;;;;;;;;5025093;28;20151;-73
2022/02/10 12:29:33;;;;;;;14.73;6.82;;;;;;;;;;5024778;28;20144;-74
2022/02/10 13:35:03;;;;;;;11.93;7.30;;;;;;;;;;4990384;28;20167;-73
2022/02/10 14:16:56;;;;;;;11.35;7.05;;;;;;;;;;4987022;28;20094;-73
2022/02/10 14:27:18;;;;;;;7.75;5.35;;;;;;;;;;4990590;28;20495;-74
2022/02/10 14:29:44;;;;;;;10.98;6.00;;;;;;;;;;4988843;28;20176;-74
2022/02/10 14:32:14;;;;;;;8.65;5.63;;;;;;;;;;4992414;28;20082;-75
2022/02/10 14:34:39;;;;;;;10.48;6.38;;;;;;;;;;4995451;28;20134;-71
2022/02/10 14:37:36;;;;;;;8.10;5.15;;;;;;;;;;4992087;28;20114;-71
2022/02/10 14:41:02;;;;;;;9.27;5.00;;;;;;;;;;4982681;28;20137;-71
2022/02/10 15:53:09;;;;;;;7.33;4.53;;;;;;;;;;5022864;28;20094;-73
2022/02/10 16:17:12;;;;;;;7.07;5.03;;;;;;;;;;4974044;28;20097;-73
2022/02/10 16:19:38;;;;;;;8.45;5.30;;;;;;;;;;4973948;28;20090;-73
2022/02/10 16:22:24;;;;;;;6.83;5.00;;;;;;;;;;5006141;28;20101;-71
2022/02/10 16:25:01;;;;;;;7.07;4.15;;;;;;;;;;5026377;28;20073;-72
2022/02/10 16:27:28;;;;;;;5.80;3.92;;;;;;;;;;5026478;28;20104;-73
2022/02/10 16:30:00;;;;;;;9.50;5.40;;;;;;;;;;5023977;28;20130;-71
2022/02/10 16:32:25;;;;;;;9.23;5.50;;;;;;;;;;5013531;28;20086;-71
2022/02/10 16:34:50;;;;;;;5.27;4.30;;;;;;;;;;4985800;28;20457;-72
2022/02/10 16:37:17;;;;;;;5.63;4.30;;;;;;;;;;4977880;28;20480;-72
2022/02/10 16:39:42;;;;;;;5.80;4.47;;;;;;;;;;4982802;28;20358;-72
2022/02/10 16:42:08;;;;;;;5.83;3.87;;;;;;;;;;4973419;28;20122;-73
2022/02/10 16:44:33;;;;;;;5.00;3.28;;;;;;;;;;4984176;28;20086;-72
2022/02/10 16:47:00;;;;;;;4.10;2.63;;;;;;;;;;4975584;28;20106;-73
2022/02/10 16:49:27;;;;;;;2.83;2.53;;;;;;;;;;4979884;28;20370;-73
2022/02/10 16:51:52;;;;;;;3.45;2.67;;;;;;;;;;4977728;28;20091;-73
2022/02/10 16:54:33;;;;;;;3.40;2.70;;;;;;;;;;4983619;28;20105;-71
2022/02/10 16:57:48;;;;;;;2.72;2.00;;;;;;;;;;4991838;28;20137;-72
2022/02/10 16:59:53;;;;;;;2.30;1.90;;;;;;;;;;4970516;28;20099;-70
2022/02/10 17:20:54;;;;;;;1.93;1.80;;;;;;;;;;5025413;28;20605;-70
2022/02/10 17:28:54;;;;;;;1.80;1.67;;;;;;;;;;4996633;28;20497;-71
2022/02/10 17:31:37;;;;;;;1.92;1.50;;;;;;;;;;5023647;28;20196;-69
2022/02/10 17:34:22;;;;;;;1.75;1.50;;;;;;;;;;5024858;28;20153;-69
2022/02/10 17:53:11;;;;;;;2.97;1.67;;;;;;;;;;5023263;28;20167;-70
2022/02/10 17:55:36;;;;;;;2.60;1.65;;;;;;;;;;5025046;28;20086;-69
2022/02/10 17:58:01;;;;;;;2.33;1.50;;;;;;;;;;5024518;28;20224;-70
2022/02/10 18:00:27;;;;;;;3.80;1.70;;;;;;;;;;5024274;28;20097;-71
2022/02/10 18:02:55;;;;;;;3.70;1.83;;;;;;;;;;5024335;28;20106;-71
2022/02/10 18:08:06;;;;;;;2.63;1.85;;;;;;;;;;5019710;28;20160;-71
2022/02/10 18:15:38;;;;;;;3.88;1.80;;;;;;;;;;4967508;28;20102;-71
2022/02/10 18:18:12;;;;;;;2.40;1.60;;;;;;;;;;4978685;28;20121;-70
2022/02/10 18:20:41;;;;;;;2.03;1.42;;;;;;;;;;4973752;28;20118;-71
2022/02/10 18:23:33;;;;;;;1.67;1.58;;;;;;;;;;5020002;28;20094;-71
2022/02/10 18:26:15;;;;;;;2.77;1.67;;;;;;;;;;5023744;28;20434;-71
2022/02/10 18:29:07;;;;;;;1.50;1.40;;;;;;;;;;5024235;28;20092;-71
2022/02/10 18:38:20;;;;;;;1.58;1.48;;;;;;;;;;5011376;28;20149;-70
2022/02/10 19:02:12;;;;;;;1.30;1.20;;;;;;;;;;5022787;28;20433;-72
2022/02/10 19:09:46;;;;;;;2.90;1.58;;;;;;;;;;5017065;28;20106;-71
2022/02/10 19:14:47;;;;;;;2.63;2.20;;;;;;;;;;4978081;28;20110;-71
2022/02/10 19:17:12;;;;;;;3.83;2.30;;;;;;;;;;4963898;28;20099;-71
2022/02/10 19:19:37;;;;;;;3.40;2.47;;;;;;;;;;4977679;28;20101;-72
2022/02/10 19:22:03;;;;;;;4.73;2.40;;;;;;;;;;5002625;28;20098;-72
2022/02/10 19:24:28;;;;;;;4.07;2.47;;;;;;;;;;5023578;28;20492;-72
2022/02/10 19:26:53;;;;;;;2.90;2.30;;;;;;;;;;5022739;28;20194;-71
2022/02/10 19:29:21;;;;;;;3.83;2.90;;;;;;;;;;5022862;28;20081;-71
2022/02/10 19:31:48;;;;;;;3.75;2.83;;;;;;;;;;5023384;28;20351;-72
2022/02/10 19:34:13;;;;;;;5.70;3.00;;;;;;;;;;5022840;28;20105;-70
2022/02/10 19:36:39;;;;;;;5.05;2.65;;;;;;;;;;5023112;28;20453;-71
2022/02/10 19:39:04;;;;;;;4.23;2.33;;;;;;;;;;5010241;28;20109;-72
2022/02/10 19:41:33;;;;;;;3.08;2.10;;;;;;;;;;5017351;28;20344;-71
2022/02/10 19:44:01;;;;;;;3.95;2.15;;;;;;;;;;5023086;28;20073;-72
2022/02/10 19:46:26;;;;;;;2.72;2.10;;;;;;;;;;5023066;28;20419;-72
2022/02/10 19:48:51;;;;;;;3.63;2.10;;;;;;;;;;5023745;28;20081;-71
2022/02/10 19:51:16;;;;;;;2.40;2.20;;;;;;;;;;5027346;28;20077;-72
2022/02/10 19:53:42;;;;;;;6.27;2.90;;;;;;;;;;5026846;28;20106;-71
2022/02/10 19:56:07;;;;;;;6.90;2.90;;;;;;;;;;5026915;28;20093;-71
2022/02/10 19:58:32;;;;;;;9.75;2.67;;;;;;;;;;5026783;28;20354;-71
2022/02/10 20:01:00;;;;;;;3.28;2.40;;;;;;;;;;5026586;28;20608;-72
2022/02/10 20:03:27;;;;;;;3.63;2.30;;;;;;;;;;5023484;28;20587;-71
2022/02/10 20:05:52;;;;;;;3.25;2.50;;;;;;;;;;5026631;28;20394;-73
2022/02/10 20:08:22;;;;;;;3.90;2.80;;;;;;;;;;5019997;28;20277;-71
2022/02/10 20:10:53;;;;;;;4.80;3.22;;;;;;;;;;4988497;28;20457;-72
2022/02/10 20:13:18;;;;;;;4.43;3.08;;;;;;;;;;4985439;28;20133;-72
2022/02/10 20:15:44;;;;;;;7.20;4.07;;;;;;;;;;4969280;28;20106;-71
2022/02/10 20:18:12;;;;;;;5.05;3.28;;;;;;;;;;4990736;28;20685;-71
2022/02/10 20:20:38;;;;;;;4.50;2.50;;;;;;;;;;4995776;28;20218;-72
2022/02/10 20:23:03;;;;;;;4.07;2.40;;;;;;;;;;5023671;28;20500;-72
2022/02/10 20:25:28;;;;;;;3.47;2.47;;;;;;;;;;5025997;28;20094;-71
2022/02/10 20:27:53;;;;;;;2.53;2.20;;;;;;;;;;5026239;28;20312;-71
2022/02/10 20:30:19;;;;;;;2.70;1.90;;;;;;;;;;5025715;28;20555;-72
2022/02/10 20:32:44;;;;;;;2.33;1.80;;;;;;;;;;5026751;28;20411;-72
2022/02/10 20:35:10;;;;;;;1.43;1.33;;;;;;;;;;5026043;28;20345;-72
2022/02/10 20:37:36;;;;;;;2.65;2.10;;;;;;;;;;5024665;28;20117;-73
2022/02/10 20:40:03;;;;;;;1.45;1.35;;;;;;;;;;5014268;28;20080;-71
2022/02/10 20:42:30;;;;;;;1.48;1.33;;;;;;;;;;5015336;28;20454;-72
2022/02/10 20:44:56;;;;;;;2.15;1.65;;;;;;;;;;5026163;28;20065;-71
2022/02/10 20:47:23;;;;;;;0.60;0.55;;;;;;;;;;5025583;28;20609;-67
2022/02/10 20:49:49;;;;;;;1.20;1.10;;;;;;;;;;5025563;28;20127;-67
2022/02/10 20:52:14;;;;;;;1.80;1.67;;;;;;;;;;5025824;28;20577;-66
2022/02/10 20:54:39;;;;;;;2.60;1.70;;;;;;;;;;5011775;28;20411;-67
2022/02/10 20:57:05;;;;;;;3.42;1.98;;;;;;;;;;5002900;28;20172;-67
2022/02/10 20:59:42;;;;;;;2.85;2.25;;;;;;;;;;4970047;28;20063;-67
2022/02/10 21:02:11;;;;;;;3.13;2.35;;;;;;;;;;4967333;28;20168;-67
2022/02/10 21:05:03;;;;;;;3.70;2.35;;;;;;;;;;4970372;28;20549;-67
2022/02/10 21:07:33;;;;;;;4.40;2.40;;;;;;;;;;4974123;28;20325;-67
2022/02/10 21:10:02;;;;;;;2.63;2.22;;;;;;;;;;4970835;28;20110;-67
2022/02/10 21:12:30;;;;;;;3.15;2.40;;;;;;;;;;4981369;28;20071;-67
2022/02/10 21:14:55;;;;;;;4.57;2.25;;;;;;;;;;4984320;28;20102;-67
2022/02/10 21:17:25;;;;;;;2.87;1.97;;;;;;;;;;4989067;28;20494;-67
2022/02/10 21:19:50;;;;;;;4.28;2.50;;;;;;;;;;4986624;28;20098;-67
2022/02/10 21:22:19;;;;;;;2.05;1.80;;;;;;;;;;4992857;28;20326;-67
2022/02/10 21:24:53;;;;;;;2.47;1.98;;;;;;;;;;4993432;28;20082;-67
2022/02/10 21:30:20;;;;;;;2.33;1.70;;;;;;;;;;4927918;29;20114;-68
2022/02/10 21:32:49;;;;;;;2.97;1.65;;;;;;;;;;4975133;28;20094;-69
2022/02/10 21:36:39;;;;;;;2.90;2.17;;;;;;;;;;4992501;28;20664;-69
2022/02/10 21:40:52;;;;;;;1.75;1.65;;;;;;;;;;4993619;28;20081;-69
2022/02/10 21:44:48;;;;;;;2.25;1.67;;;;;;;;;;4981015;28;20132;-69
2022/02/10 21:54:41;;;;;;;2.50;2.00;;;;;;;;;;4995003;28;20549;-69
2022/02/10 22:00:00;;;;;;;2.00;1.83;;;;;;;;;;4988319;28;20455;-69
2022/02/10 22:18:49;;;;;;;1.60;1.50;;;;;;;;;;4992726;28;20116;-69
2022/02/10 22:21:20;;;;;;;1.70;1.60;;;;;;;;;;4992953;28;20288;-69
2022/02/10 22:23:47;;;;;;;1.80;1.70;;;;;;;;;;4987556;28;20109;-69
2022/02/10 22:26:19;;;;;;;1.65;1.55;;;;;;;;;;4985634;28;20149;-69
2022/02/10 22:36:35;;;;;;;1.75;1.42;;;;;;;;;;5003989;28;20345;-69
2022/02/10 22:39:02;;;;;;;1.70;1.52;;;;;;;;;;4971140;28;20750;-69
2022/02/10 22:41:28;;;;;;;1.15;1.05;;;;;;;;;;4983461;28;20754;-69
2022/02/10 22:43:53;;;;;;;3.05;1.40;;;;;;;;;;5000180;28;20082;-69
2022/02/10 22:46:19;;;;;;;1.03;1.03;;;;;;;;;;4998572;28;20114;-69
2022/02/10 22:48:46;;;;;;;1.88;1.67;;;;;;;;;;4999217;28;20132;-69
2022/02/10 22:51:12;;;;;;;1.35;1.25;;;;;;;;;;4999187;28;20156;-69
2022/02/10 22:53:37;;;;;;;1.25;1.15;;;;;;;;;;4999002;28;20575;-69
2022/02/10 22:56:02;;;;;;;1.20;1.20;;;;;;;;;;4999520;28;20078;-69
2022/02/10 22:58:28;;;;;;;1.15;1.15;;;;;;;;;;4998026;28;20122;-68
2022/02/10 23:00:54;;;;;;;1.48;1.38;;;;;;;;;;4999081;28;20090;-68
2022/02/10 23:03:19;;;;;;;1.95;0.95;;;;;;;;;;4999393;28;20337;-68
2022/02/10 23:05:44;;;;;;;2.73;1.13;;;;;;;;;;4998455;28;20109;-68
2022/02/10 23:08:09;;;;;;;0.73;0.73;;;;;;;;;;4999186;28;20066;-68
2022/02/10 23:10:52;;;;;;;0.75;0.75;;;;;;;;;;4998453;28;20433;-69
2022/02/10 23:13:20;;;;;;;0.60;0.60;;;;;;;;;;4997139;28;20557;-69
2022/02/10 23:15:45;;;;;;;1.08;0.90;;;;;;;;;;4980730;28;20078;-69
2022/02/10 23:18:12;;;;;;;1.00;1.00;;;;;;;;;;4991758;28;20594;-69
2022/02/10 23:20:37;;;;;;;1.15;1.05;;;;;;;;;;4982065;28;20118;-68
2022/02/10 23:23:05;;;;;;;0.70;0.70;;;;;;;;;;4994283;28;20102;-69
2022/02/10 23:25:30;;;;;;;0.40;0.40;;;;;;;;;;4990556;28;20384;-68
2022/02/10 23:27:55;;;;;;;1.10;0.80;;;;;;;;;;4992913;28;20329;-68
2022/02/10 23:30:21;;;;;;;0.30;0.30;;;;;;;;;;4989633;28;20192;-68
2022/02/10 23:32:47;;;;;;;0.50;0.50;;;;;;;;;;4994196;28;20491;-69
2022/02/10 23:35:38;;;;;;;0.60;0.60;;;;;;;;;;4998647;28;20102;-69
2022/02/10 23:37:57;;;;;;;0.30;0.30;;;;;;;;;;4995091;28;20122;-69
2022/02/10 23:40:27;;;;;;;3.90;0.70;;;;;;;;;;4989320;28;20305;-66
2022/02/10 23:42:54;;;;;;;1.15;0.82;;;;;;;;;;4998517;28;20360;-68
2022/02/10 23:45:24;;;;;;;0.40;0.40;;;;;;;;;;4998480;28;20078;-68
2022/02/10 23:47:49;;;;;;;;;;;;;;;;;;4999445;28;20102;-67
2022/02/10 23:50:17;;;;;;;0.35;0.35;;;;;;;;;;4997811;28;19992;-67
2022/02/10 23:52:43;;;;;;;0.60;0.30;;;;;;;;;;4998587;28;20532;-68
2022/02/10 23:55:15;;;;;;;0.50;0.50;;;;;;;;;;4998424;28;20349;-67
2022/02/10 23:57:58;;;;;;;1.30;0.80;;;;;;;;;;4997771;28;20467;-67
